Herve, Belgium
Current Conditions -  °F | °C
As of 9:20 AM on Tuesday 21 Oct 2014 (Local Time) from EBLG Reporting Station
Broken Clouds Broken Clouds  
Wind Chill: 52°   Ceiling: 3200
Heat Index: 52°   Visibility: 6mi
Dew Point: 48°   Wind: 16mph
Humidity: 88%   Direction: 200°SSW
Pressure: 29.8"   Gusts: NA
Location:  50.64°N, 5.79°E
Report Text: EBLG 210720Z 20014KT 9999 FEW014 BKN032 11/09 Q1009 NOSG
Loading
Personal Weather Stations






























Interactive Weather Map
Tropical Storm Tracking
New forecast layout! Learn more

10-Day Weather Forecast

Advertisements
Track Severe Weather on mobile